Time,TemperatureF,DewpointF,PressureIn,WindDirection,WindDirectionDegrees,WindSpeedMPH,WindSpeedGustMPH,Humidity,HourlyPrecipIn,Conditions,Clouds,dailyrainin,SoftwareType,DateUTC
2013-02-21 00:00:00,27.3,1.3,29.65,WNW,292,5.8,5.8,32,0.00,,,0.00,WeatherDisplay:10.37,2013-02-21 05:00:00,
2013-02-21 00:05:00,27.5,1.4,29.65,WSW,250,5.8,5.8,32,0.00,,,0.00,WeatherDisplay:10.37,2013-02-21 05:05:00,
2013-02-21 00:10:00,27.5,1.4,29.65,SW,233,4.6,4.6,32,0.00,,,0.00,WeatherDisplay:10.37,2013-02-21 05:10:00,
2013-02-21 00:15:00,27.5,1.4,29.65,SW,232,5.8,5.8,32,0.00,,,0.00,WeatherDisplay:10.37,2013-02-21 05:15:00,
2013-02-21 00:20:00,27.5,1.4,29.68,West,277,4.6,4.6,32,0.00,,,0.00,WeatherDisplay:10.37,2013-02-21 05:20:00,
2013-02-21 00:25:00,27.5,1.4,29.68,West,270,4.0,4.0,32,0.00,,,0.00,WeatherDisplay:10.37,2013-02-21 05:25:00,
2013-02-21 00:30:00,27.5,1.4,29.68,WNW,283,6.9,6.9,32,0.00,,,0.00,WeatherDisplay:10.37,2013-02-21 05:30:00,
2013-02-21 00:35:00,27.3,1.3,29.68,West,278,3.5,3.5,32,0.00,,,0.00,WeatherDisplay:10.37,2013-02-21 05:35:00,
2013-02-21 00:40:00,27.5,1.4,29.68,West,279,5.8,5.8,32,0.00,,,0.00,WeatherDisplay:10.37,2013-02-21 05:40:00,
2013-02-21 00:45:00,27.5,1.4,29.68,West,270,0.0,0.0,32,0.00,,,0.00,WeatherDisplay:10.37,2013-02-21 05:45:00,
2013-02-21 00:50:00,27.3,1.3,29.68,SW,214,4.6,4.6,32,0.00,,,0.00,WeatherDisplay:10.37,2013-02-21 05:50:00,
2013-02-21 00:57:00,27.3,1.3,29.68,West,271,5.8,5.8,32,0.00,,,0.00,WeatherDisplay:10.37,2013-02-21 05:57:00,
2013-02-21 01:02:00,27.1,1.1,29.68,West,260,4.6,4.6,32,0.00,,,0.00,WeatherDisplay:10.37,2013-02-21 06:02:00,
2013-02-21 01:07:00,27.1,1.1,29.68,WSW,253,5.8,5.8,32,0.00,,,0.00,WeatherDisplay:10.37,2013-02-21 06:07:00,
2013-02-21 01:12:00,27.1,1.1,29.68,West,278,5.8,5.8,32,0.00,,,0.00,WeatherDisplay:10.37,2013-02-21 06:12:00,
2013-02-21 01:17:00,27.1,1.1,29.68,West,272,5.8,5.8,32,0.00,,,0.00,WeatherDisplay:10.37,2013-02-21 06:17:00,
2013-02-21 01:22:00,27.1,1.8,29.68,West,261,2.3,0.0,33,0.00,,,0.00,WeatherDisplay:10.37,2013-02-21 06:22:00,
2013-02-21 01:27:00,27.1,1.8,29.68,SW,235,0.0,0.0,33,0.00,,,0.00,WeatherDisplay:10.37,2013-02-21 06:27:00,
2013-02-21 01:32:00,27.0,1.6,29.68,West,272,2.3,0.0,33,0.00,,,0.00,WeatherDisplay:10.37,2013-02-21 06:32:00,
2013-02-21 01:37:00,27.0,1.6,29.68,SW,235,0.0,0.0,33,0.00,,,0.00,WeatherDisplay:10.37,2013-02-21 06:37:00,
2013-02-21 01:42:00,27.1,1.8,29.68,West,271,3.5,3.5,33,0.00,,,0.00,WeatherDisplay:10.37,2013-02-21 06:42:00,
2013-02-21 01:47:00,27.3,2.0,29.68,WSW,242,5.8,5.8,33,0.00,,,0.00,WeatherDisplay:10.37,2013-02-21 06:47:00,
2013-02-21 01:52:00,27.3,2.0,29.68,WSW,252,5.8,5.8,33,0.00,,,0.00,WeatherDisplay:10.37,2013-02-21 06:52:00,
2013-02-21 01:57:00,27.3,2.0,29.68,WSW,254,3.5,3.5,33,0.00,,,0.00,WeatherDisplay:10.37,2013-02-21 06:57:00,
2013-02-21 02:02:00,27.5,2.1,29.68,WSW,241,5.8,5.8,33,0.00,,,0.00,WeatherDisplay:10.37,2013-02-21 07:02:00,
2013-02-21 02:07:00,27.5,2.1,29.68,WSW,251,3.5,3.5,33,0.00,,,0.00,WeatherDisplay:10.37,2013-02-21 07:07:00,
2013-02-21 02:12:00,27.5,2.8,29.68,West,275,3.5,0.0,34,0.00,,,0.00,WeatherDisplay:10.37,2013-02-21 07:12:00,
2013-02-21 02:17:00,27.5,2.8,29.68,SSW,192,3.5,0.0,34,0.00,,,0.00,WeatherDisplay:10.37,2013-02-21 07:17:00,
2013-02-21 02:22:00,27.5,2.8,29.68,SW,236,4.6,4.6,34,0.00,,,0.00,WeatherDisplay:10.37,2013-02-21 07:22:00,
2013-02-21 02:27:00,27.7,2.9,29.68,WSW,255,3.5,0.0,34,0.00,,,0.00,WeatherDisplay:10.37,2013-02-21 07:27:00,
2013-02-21 02:32:00,27.7,2.9,29.68,SW,220,3.5,3.5,34,0.00,,,0.00,WeatherDisplay:10.37,2013-02-21 07:32:00,
2013-02-21 02:37:00,27.9,3.1,29.68,WSW,253,4.6,4.6,34,0.00,,,0.00,WeatherDisplay:10.37,2013-02-21 07:37:00,
2013-02-21 02:42:00,27.9,3.1,29.68,West,270,2.3,0.0,34,0.00,,,0.00,WeatherDisplay:10.37,2013-02-21 07:42:00,
2013-02-21 02:47:00,27.9,3.7,29.68,WSW,244,5.8,0.0,35,0.00,,,0.00,WeatherDisplay:10.37,2013-02-21 07:47:00,
2013-02-21 02:52:00,27.9,3.1,29.68,West,259,3.6,3.6,34,0.00,,,0.00,WeatherDisplay:10.37,2013-02-21 07:52:00,
2013-02-21 02:57:00,27.9,3.7,29.68,SW,224,3.6,3.6,35,0.00,,,0.00,WeatherDisplay:10.37,2013-02-21 07:57:00,
2013-02-21 03:02:00,27.9,3.1,29.68,WSW,248,5.8,5.8,34,0.00,,,0.00,WeatherDisplay:10.37,2013-02-21 08:02:00,
2013-02-21 03:07:00,27.9,3.7,29.68,WSW,241,3.5,3.5,35,0.00,,,0.00,WeatherDisplay:10.37,2013-02-21 08:07:00,
2013-02-21 03:12:00,27.9,3.7,29.68,West,259,3.5,3.5,35,0.00,,,0.00,WeatherDisplay:10.37,2013-02-21 08:12:00,
2013-02-21 03:17:00,27.9,3.7,29.68,West,265,5.8,5.8,35,0.00,,,0.00,WeatherDisplay:10.37,2013-02-21 08:17:00,
2013-02-21 03:22:00,27.9,3.7,29.68,WSW,243,9.2,9.2,35,0.00,,,0.00,WeatherDisplay:10.37,2013-02-21 08:22:00,
2013-02-21 03:27:00,27.9,3.7,29.68,SW,234,3.5,3.5,35,0.00,,,0.00,WeatherDisplay:10.37,2013-02-21 08:27:00,
2013-02-21 03:32:00,27.9,3.7,29.68,West,276,5.8,5.8,35,0.00,,,0.00,WeatherDisplay:10.37,2013-02-21 08:32:00,
2013-02-21 03:37:00,27.9,3.7,29.68,WSW,257,3.5,0.0,35,0.00,,,0.00,WeatherDisplay:10.37,2013-02-21 08:37:00,
2013-02-21 03:42:00,27.9,3.7,29.68,SW,231,5.8,5.8,35,0.00,,,0.00,WeatherDisplay:10.37,2013-02-21 08:42:00,
2013-02-21 03:47:00,27.9,3.7,29.68,WSW,247,3.6,3.6,35,0.00,,,0.00,WeatherDisplay:10.37,2013-02-21 08:47:00,
2013-02-21 03:53:00,27.9,3.7,29.68,WSW,247,3.5,0.0,35,0.00,,,0.00,WeatherDisplay:10.37,2013-02-21 08:53:00,
2013-02-21 03:58:00,27.9,4.3,29.68,WSW,250,5.8,5.8,36,0.00,,,0.00,WeatherDisplay:10.37,2013-02-21 08:58:00,
2013-02-21 04:03:00,27.9,4.3,29.68,WSW,243,3.5,3.5,36,0.00,,,0.00,WeatherDisplay:10.37,2013-02-21 09:03:00,
2013-02-21 04:07:00,27.9,4.3,29.68,WSW,253,3.1,3.1,36,0.00,,,0.00,WeatherDisplay:10.37,2013-02-21 09:07:00,
2013-02-21 04:12:00,27.9,4.3,29.68,WSW,252,8.1,8.1,36,0.00,,,0.00,WeatherDisplay:10.37,2013-02-21 09:12:00,
2013-02-21 04:18:00,27.9,4.3,29.68,WSW,245,3.5,3.5,36,0.00,,,0.00,WeatherDisplay:10.37,2013-02-21 09:18:00,
2013-02-21 04:23:00,27.9,3.7,29.68,SW,234,5.8,5.8,35,0.00,,,0.00,WeatherDisplay:10.37,2013-02-21 09:23:00,
2013-02-21 04:28:00,27.9,3.7,29.68,WSW,252,5.8,5.8,35,0.00,,,0.00,WeatherDisplay:10.37,2013-02-21 09:28:00,
2013-02-21 04:33:00,27.9,3.7,29.68,WSW,243,5.8,5.8,35,0.00,,,0.00,WeatherDisplay:10.37,2013-02-21 09:33:00,
2013-02-21 04:38:00,27.9,3.7,29.68,SW,215,10.4,10.4,35,0.00,,,0.00,WeatherDisplay:10.37,2013-02-21 09:38:00,
2013-02-21 04:43:00,27.9,3.7,29.68,West,261,3.5,4.0,35,0.00,,,0.00,WeatherDisplay:10.37,2013-02-21 09:43:00,
2013-02-21 04:48:00,27.9,3.7,29.68,SSW,208,6.9,6.9,35,0.00,,,0.00,WeatherDisplay:10.37,2013-02-21 09:48:00,
2013-02-21 04:53:00,27.9,3.7,29.68,West,266,3.5,3.5,35,0.00,,,0.00,WeatherDisplay:10.37,2013-02-21 09:53:00,
2013-02-21 04:58:00,27.9,3.7,29.68,West,277,5.8,5.8,35,0.00,,,0.00,WeatherDisplay:10.37,2013-02-21 09:58:00,
2013-02-21 05:03:00,27.9,3.7,29.68,West,263,5.8,5.8,35,0.00,,,0.00,WeatherDisplay:10.37,2013-02-21 10:03:00,
2013-02-21 05:08:00,27.9,3.7,29.68,WSW,256,5.8,5.8,35,0.00,,,0.00,WeatherDisplay:10.37,2013-02-21 10:08:00,
2013-02-21 05:13:00,27.7,3.5,29.68,WSW,257,5.8,5.8,35,0.00,,,0.00,WeatherDisplay:10.37,2013-02-21 10:13:00,
2013-02-21 05:18:00,27.7,3.5,29.68,SW,227,3.5,3.5,35,0.00,,,0.00,WeatherDisplay:10.37,2013-02-21 10:18:00,
2013-02-21 05:23:00,27.5,3.4,29.68,WSW,239,5.8,5.8,35,0.00,,,0.00,WeatherDisplay:10.37,2013-02-21 10:23:00,
2013-02-21 05:28:00,27.5,4.0,29.68,West,262,3.5,3.6,36,0.00,,,0.00,WeatherDisplay:10.37,2013-02-21 10:28:00,
2013-02-21 05:33:00,27.3,3.8,29.68,WSW,246,3.5,3.6,36,0.00,,,0.00,WeatherDisplay:10.37,2013-02-21 10:33:00,
2013-02-21 05:38:00,27.1,4.3,29.68,WSW,256,8.1,8.1,37,0.00,,,0.00,WeatherDisplay:10.37,2013-02-21 10:38:00,
2013-02-21 05:43:00,27.0,4.7,29.68,SW,230,3.5,3.5,38,0.00,,,0.00,WeatherDisplay:10.37,2013-02-21 10:43:00,
2013-02-21 05:48:00,27.0,4.7,29.68,WSW,249,5.8,5.8,38,0.00,,,0.00,WeatherDisplay:10.37,2013-02-21 10:48:00,
2013-02-21 05:53:00,26.8,4.5,29.68,WSW,243,4.6,4.6,38,0.00,,,0.00,WeatherDisplay:10.37,2013-02-21 10:53:00,
2013-02-21 05:58:00,26.6,4.4,29.68,West,269,4.6,4.6,38,0.00,,,0.00,WeatherDisplay:10.37,2013-02-21 10:58:00,
2013-02-21 06:03:00,26.6,4.4,29.68,West,277,3.5,3.5,38,0.00,,,0.00,WeatherDisplay:10.37,2013-02-21 11:03:00,
2013-02-21 06:08:00,26.6,4.4,29.68,WSW,240,4.0,4.0,38,0.00,,,0.00,WeatherDisplay:10.37,2013-02-21 11:08:00,
2013-02-21 06:13:00,26.6,4.4,29.68,West,268,4.6,4.6,38,0.00,,,0.00,WeatherDisplay:10.37,2013-02-21 11:13:00,
2013-02-21 06:18:00,26.6,4.4,29.68,WSW,253,5.8,5.8,38,0.00,,,0.00,WeatherDisplay:10.37,2013-02-21 11:18:00,
2013-02-21 06:23:00,26.6,4.4,29.68,SW,235,2.3,2.3,38,0.00,,,0.00,WeatherDisplay:10.37,2013-02-21 11:23:00,
2013-02-21 06:28:00,26.8,4.5,29.68,WSW,246,4.6,4.6,38,0.00,,,0.00,WeatherDisplay:10.37,2013-02-21 11:28:00,
2013-02-21 06:33:00,26.8,3.9,29.68,West,268,9.2,9.2,37,0.00,,,0.00,WeatherDisplay:10.37,2013-02-21 11:33:00,
2013-02-21 06:38:00,27.0,4.1,29.68,WSW,246,4.6,4.6,37,0.00,,,0.00,WeatherDisplay:10.37,2013-02-21 11:38:00,
2013-02-21 06:43:00,27.0,4.1,29.68,West,263,5.8,5.8,37,0.00,,,0.00,WeatherDisplay:10.37,2013-02-21 11:43:00,
2013-02-21 06:48:00,27.1,3.7,29.68,SW,231,8.1,8.1,36,0.00,,,0.00,WeatherDisplay:10.37,2013-02-21 11:48:00,
2013-02-21 06:53:00,27.3,3.2,29.68,West,273,5.8,5.8,35,0.00,,,0.00,WeatherDisplay:10.37,2013-02-21 11:53:00,
2013-02-21 06:58:00,27.3,3.2,29.68,WSW,243,5.8,5.8,35,0.00,,,0.00,WeatherDisplay:10.37,2013-02-21 11:58:00,
2013-02-21 07:03:00,27.3,3.2,29.68,WSW,243,8.1,8.1,35,0.00,,,0.00,WeatherDisplay:10.37,2013-02-21 12:03:00,
2013-02-21 07:08:00,27.3,3.2,29.68,WSW,243,5.8,5.8,35,0.00,,,0.00,WeatherDisplay:10.37,2013-02-21 12:08:00,
2013-02-21 07:13:00,27.3,3.2,29.68,WSW,247,10.4,10.4,35,0.00,,,0.00,WeatherDisplay:10.37,2013-02-21 12:13:00,
2013-02-21 07:18:00,27.5,3.4,29.68,WSW,255,8.1,8.1,35,0.00,,,0.00,WeatherDisplay:10.37,2013-02-21 12:18:00,
2013-02-21 07:23:00,27.5,3.4,29.68,WNW,283,5.8,5.8,35,0.00,,,0.00,WeatherDisplay:10.37,2013-02-21 12:23:00,
2013-02-21 07:28:00,27.7,2.9,29.68,SW,230,8.1,8.1,34,0.00,,,0.00,WeatherDisplay:10.37,2013-02-21 12:28:00,
2013-02-21 07:33:00,27.7,2.9,29.68,WSW,252,8.1,8.1,34,0.00,,,0.00,WeatherDisplay:10.37,2013-02-21 12:33:00,
2013-02-21 07:38:00,27.9,3.1,29.71,WSW,257,8.1,8.1,34,0.00,,,0.00,WeatherDisplay:10.37,2013-02-21 12:38:00,
2013-02-21 07:44:00,27.9,3.1,29.71,WNW,300,5.8,5.8,34,0.00,,,0.00,WeatherDisplay:10.37,2013-02-21 12:44:00,
2013-02-21 07:49:00,27.9,3.1,29.71,West,261,5.8,5.8,34,0.00,,,0.00,WeatherDisplay:10.37,2013-02-21 12:49:00,
2013-02-21 07:54:00,28.0,3.2,29.68,WSW,258,4.6,4.6,34,0.00,,,0.00,WeatherDisplay:10.37,2013-02-21 12:54:00,
2013-02-21 07:59:00,28.0,2.6,29.68,WSW,245,8.1,8.1,33,0.00,,,0.00,WeatherDisplay:10.37,2013-02-21 12:59:00,
2013-02-21 08:04:00,28.2,2.7,29.68,WSW,246,5.8,5.8,33,0.00,,,0.00,WeatherDisplay:10.37,2013-02-21 13:04:00,
2013-02-21 08:09:00,28.2,2.7,29.68,SW,225,11.8,11.8,33,0.00,,,0.00,WeatherDisplay:10.37,2013-02-21 13:09:00,
2013-02-21 08:14:00,28.4,2.9,29.68,West,272,3.6,0.0,33,0.00,,,0.00,WeatherDisplay:10.37,2013-02-21 13:14:00,
2013-02-21 08:19:00,28.4,2.9,29.68,WNW,288,3.5,3.5,33,0.00,,,0.00,WeatherDisplay:10.37,2013-02-21 13:19:00,
2013-02-21 08:24:00,28.6,2.4,29.71,WNW,291,3.5,3.5,32,0.00,,,0.00,WeatherDisplay:10.37,2013-02-21 13:24:00,
2013-02-21 08:29:00,28.8,2.6,29.71,West,273,8.0,8.0,32,0.00,,,0.00,WeatherDisplay:10.37,2013-02-21 13:29:00,
2013-02-21 08:34:00,28.6,2.4,29.71,NW,307,12.7,12.7,32,0.00,,,0.00,WeatherDisplay:10.37,2013-02-21 13:34:00,
2013-02-21 08:39:00,28.4,2.2,29.71,WNW,301,5.8,5.8,32,0.00,,,0.00,WeatherDisplay:10.37,2013-02-21 13:39:00,
2013-02-21 08:44:00,28.2,2.7,29.71,West,268,8.1,8.1,33,0.00,,,0.00,WeatherDisplay:10.37,2013-02-21 13:44:00,
2013-02-21 08:49:00,28.4,2.9,29.71,West,263,8.1,8.1,33,0.00,,,0.00,WeatherDisplay:10.37,2013-02-21 13:49:00,
2013-02-21 08:54:00,28.6,2.4,29.71,West,277,5.8,5.8,32,0.00,,,0.00,WeatherDisplay:10.37,2013-02-21 13:54:00,
2013-02-21 08:59:00,28.8,2.6,29.71,WSW,253,13.8,13.8,32,0.00,,,0.00,WeatherDisplay:10.37,2013-02-21 13:59:00,
2013-02-21 09:04:00,28.6,2.4,29.71,West,274,8.1,8.1,32,0.00,,,0.00,WeatherDisplay:10.37,2013-02-21 14:04:00,
2013-02-21 09:09:00,28.4,2.2,29.68,West,274,8.1,8.1,32,0.00,,,0.00,WeatherDisplay:10.37,2013-02-21 14:09:00,
2013-02-21 09:14:00,28.6,2.4,29.68,WNW,290,3.5,3.5,32,0.00,,,0.00,WeatherDisplay:10.37,2013-02-21 14:14:00,
2013-02-21 09:19:00,28.8,2.6,29.68,NW,309,5.8,5.8,32,0.00,,,0.00,WeatherDisplay:10.37,2013-02-21 14:19:00,
2013-02-21 09:24:00,28.8,2.6,29.68,West,263,5.8,5.8,32,0.00,,,0.00,WeatherDisplay:10.37,2013-02-21 14:24:00,
2013-02-21 09:29:00,29.1,2.9,29.68,WNW,303,10.4,10.4,32,0.00,,,0.00,WeatherDisplay:10.37,2013-02-21 14:29:00,
2013-02-21 09:34:00,29.5,3.2,29.68,West,266,4.6,0.0,32,0.00,,,0.00,WeatherDisplay:10.37,2013-02-21 14:34:00,
2013-02-21 09:39:00,29.5,2.5,29.68,WSW,247,9.2,9.2,31,0.00,,,0.00,WeatherDisplay:10.37,2013-02-21 14:39:00,
2013-02-21 09:44:00,29.7,2.7,29.68,SW,232,5.8,5.8,31,0.00,,,0.00,WeatherDisplay:10.37,2013-02-21 14:44:00,
2013-02-21 09:49:00,30.0,3.0,29.68,SW,236,9.2,9.2,31,0.00,,,0.00,WeatherDisplay:10.37,2013-02-21 14:49:00,
2013-02-21 09:54:00,30.2,3.1,29.68,WNW,286,5.8,5.8,31,0.00,,,0.00,WeatherDisplay:10.37,2013-02-21 14:54:00,
2013-02-21 09:59:00,30.2,3.1,29.68,West,260,11.5,11.5,31,0.00,,,0.00,WeatherDisplay:10.37,2013-02-21 14:59:00,
2013-02-21 10:04:00,30.6,3.5,29.68,West,261,10.4,10.4,31,0.00,,,0.00,WeatherDisplay:10.37,2013-02-21 15:04:00,
2013-02-21 10:09:00,31.1,3.9,29.68,WSW,256,8.1,8.1,31,0.00,,,0.00,WeatherDisplay:10.37,2013-02-21 15:09:00,
2013-02-21 10:14:00,32.0,4.7,29.68,NNW,331,5.8,5.8,31,0.00,,,0.00,WeatherDisplay:10.37,2013-02-21 15:14:00,
2013-02-21 10:19:00,32.0,4.0,29.68,NNW,329,11.5,11.5,30,0.00,,,0.00,WeatherDisplay:10.37,2013-02-21 15:19:00,
2013-02-21 10:24:00,32.0,4.7,29.68,West,264,12.7,12.7,31,0.00,,,0.00,WeatherDisplay:10.37,2013-02-21 15:24:00,
2013-02-21 10:29:00,32.2,4.9,29.68,WSW,246,10.4,10.4,31,0.00,,,0.00,WeatherDisplay:10.37,2013-02-21 15:29:00,
2013-02-21 10:34:00,32.0,4.0,29.68,West,272,5.8,5.8,30,0.00,,,0.00,WeatherDisplay:10.37,2013-02-21 15:34:00,
2013-02-21 10:39:00,32.0,4.0,29.68,WSW,254,8.1,8.1,30,0.00,,,0.00,WeatherDisplay:10.37,2013-02-21 15:39:00,
2013-02-21 10:44:00,31.8,3.9,29.68,WSW,253,3.5,0.0,30,0.00,,,0.00,WeatherDisplay:10.37,2013-02-21 15:44:00,
2013-02-21 10:49:00,31.8,3.9,29.68,SW,226,10.4,10.4,30,0.00,,,0.00,WeatherDisplay:10.37,2013-02-21 15:49:00,
2013-02-21 10:54:00,31.8,3.9,29.68,West,265,5.8,5.8,30,0.00,,,0.00,WeatherDisplay:10.37,2013-02-21 15:54:00,
2013-02-21 10:59:00,31.8,3.9,29.68,West,269,9.2,9.2,30,0.00,,,0.00,WeatherDisplay:10.37,2013-02-21 15:59:00,
2013-02-21 11:04:00,32.4,4.3,29.68,WSW,258,5.8,5.8,30,0.00,,,0.00,WeatherDisplay:10.37,2013-02-21 16:04:00,
2013-02-21 11:09:00,32.9,4.8,29.68,West,281,2.3,0.0,30,0.00,,,0.00,WeatherDisplay:10.37,2013-02-21 16:09:00,
2013-02-21 11:14:00,33.6,5.4,29.68,WSW,244,8.7,8.7,30,0.00,,,0.00,WeatherDisplay:10.37,2013-02-21 16:14:00,
2013-02-21 11:19:00,33.8,5.6,29.68,WSW,250,8.1,8.1,30,0.00,,,0.00,WeatherDisplay:10.37,2013-02-21 16:19:00,
2013-02-21 11:24:00,34.0,5.7,29.68,West,277,9.2,9.2,30,0.00,,,0.00,WeatherDisplay:10.37,2013-02-21 16:24:00,
2013-02-21 11:29:00,34.7,6.4,29.68,West,266,10.4,10.4,30,0.00,,,0.00,WeatherDisplay:10.37,2013-02-21 16:29:00,
2013-02-21 11:34:00,35.4,7.0,29.68,West,272,6.9,6.9,30,0.00,,,0.00,WeatherDisplay:10.37,2013-02-21 16:34:00,
2013-02-21 11:39:00,36.3,7.8,29.68,WSW,258,10.4,10.4,30,0.00,,,0.00,WeatherDisplay:10.37,2013-02-21 16:39:00,
2013-02-21 11:44:00,36.9,5.9,29.68,West,270,8.1,8.1,27,0.00,,,0.00,WeatherDisplay:10.37,2013-02-21 16:44:00,
2013-02-21 11:49:00,36.7,5.8,29.68,West,278,12.7,12.7,27,0.00,,,0.00,WeatherDisplay:10.37,2013-02-21 16:49:00,
2013-02-21 11:54:00,36.0,5.2,29.68,WSW,256,11.5,11.5,27,0.00,,,0.00,WeatherDisplay:10.37,2013-02-21 16:54:00,
2013-02-21 11:59:00,35.6,4.8,29.68,WSW,252,8.1,8.1,27,0.00,,,0.00,WeatherDisplay:10.37,2013-02-21 16:59:00,
2013-02-21 12:04:00,35.8,5.0,29.68,WSW,254,5.8,5.8,27,0.00,,,0.00,WeatherDisplay:10.37,2013-02-21 17:04:00,
2013-02-21 12:09:00,35.4,4.7,29.65,WSW,251,8.1,8.1,27,0.00,,,0.00,WeatherDisplay:10.37,2013-02-21 17:09:00,
2013-02-21 12:14:00,35.4,4.7,29.65,SW,233,5.8,5.8,27,0.00,,,0.00,WeatherDisplay:10.37,2013-02-21 17:14:00,
2013-02-21 12:19:00,35.8,5.0,29.65,WNW,284,9.2,9.2,27,0.00,,,0.00,WeatherDisplay:10.37,2013-02-21 17:19:00,
2013-02-21 12:24:00,36.3,7.0,29.65,NW,320,13.8,13.8,29,0.00,,,0.00,WeatherDisplay:10.37,2013-02-21 17:24:00,
2013-02-21 12:29:00,37.0,6.1,29.65,NW,312,11.5,11.5,27,0.00,,,0.00,WeatherDisplay:10.37,2013-02-21 17:29:00,
2013-02-21 12:34:00,36.9,5.9,29.65,West,279,8.3,8.3,27,0.00,,,0.00,WeatherDisplay:10.37,2013-02-21 17:34:00,
2013-02-21 12:39:00,36.3,5.5,29.65,SW,235,12.7,12.7,27,0.00,,,0.00,WeatherDisplay:10.37,2013-02-21 17:39:00,
2013-02-21 12:44:00,35.4,4.7,29.65,WNW,295,7.6,7.6,27,0.00,,,0.00,WeatherDisplay:10.37,2013-02-21 17:44:00,
2013-02-21 12:49:00,35.2,4.5,29.65,West,273,9.2,9.2,27,0.00,,,0.00,WeatherDisplay:10.37,2013-02-21 17:49:00,
2013-02-21 12:54:00,35.2,4.5,29.65,West,268,8.1,8.1,27,0.00,,,0.00,WeatherDisplay:10.37,2013-02-21 17:54:00,
2013-02-21 12:59:00,35.1,2.7,29.65,WSW,252,12.3,12.3,25,0.00,,,0.00,WeatherDisplay:10.37,2013-02-21 17:59:00,
2013-02-21 13:04:00,35.4,4.7,29.65,WNW,303,8.1,8.1,27,0.00,,,0.00,WeatherDisplay:10.37,2013-02-21 18:04:00,
2013-02-21 13:09:00,36.1,2.8,29.65,West,263,10.4,10.4,24,0.00,,,0.00,WeatherDisplay:10.37,2013-02-21 18:09:00,
2013-02-21 13:14:00,36.7,5.8,29.65,NW,306,10.4,10.4,27,0.00,,,0.00,WeatherDisplay:10.37,2013-02-21 18:14:00,
2013-02-21 13:20:00,36.7,3.2,29.65,WSW,249,5.8,5.8,24,0.00,,,0.00,WeatherDisplay:10.37,2013-02-21 18:20:00,
2013-02-21 13:25:00,37.0,3.5,29.65,WNW,291,10.4,10.4,24,0.00,,,0.00,WeatherDisplay:10.37,2013-02-21 18:25:00,
2013-02-21 13:30:00,36.9,1.5,29.65,WNW,288,5.8,5.8,22,0.00,,,0.00,WeatherDisplay:10.37,2013-02-21 18:30:00,
2013-02-21 13:35:00,37.2,3.7,29.65,WNW,299,5.8,5.8,24,0.00,,,0.00,WeatherDisplay:10.37,2013-02-21 18:35:00,
2013-02-21 13:40:00,38.1,4.4,29.65,WNW,288,4.6,4.6,24,0.00,,,0.00,WeatherDisplay:10.37,2013-02-21 18:40:00,
2013-02-21 13:45:00,39.2,4.4,29.65,West,272,10.4,10.4,23,0.00,,,0.00,WeatherDisplay:10.37,2013-02-21 18:45:00,
2013-02-21 13:50:00,39.2,4.4,29.65,West,269,10.4,10.4,23,0.00,,,0.00,WeatherDisplay:10.37,2013-02-21 18:50:00,
2013-02-21 13:55:00,38.8,2.2,29.65,WNW,301,12.7,12.7,21,0.00,,,0.00,WeatherDisplay:10.37,2013-02-21 18:55:00,
2013-02-21 14:00:00,37.6,1.1,29.65,WNW,290,8.1,8.3,21,0.00,,,0.00,WeatherDisplay:10.37,2013-02-21 19:00:00,
2013-02-21 14:05:00,37.2,3.7,29.65,WNW,302,6.9,6.9,24,0.00,,,0.00,WeatherDisplay:10.37,2013-02-21 19:05:00,
2013-02-21 14:10:00,36.7,3.2,29.65,West,278,4.6,4.6,24,0.00,,,0.00,WeatherDisplay:10.37,2013-02-21 19:10:00,
2013-02-21 14:15:00,36.1,2.8,29.65,WNW,292,10.4,10.4,24,0.00,,,0.00,WeatherDisplay:10.37,2013-02-21 19:15:00,
2013-02-21 14:20:00,35.8,2.4,29.65,WNW,296,9.2,9.2,24,0.00,,,0.00,WeatherDisplay:10.37,2013-02-21 19:20:00,
2013-02-21 14:25:00,35.4,3.0,29.65,WNW,295,10.4,10.4,25,0.00,,,0.00,WeatherDisplay:10.37,2013-02-21 19:25:00,
2013-02-21 14:30:00,35.6,2.3,29.65,WNW,291,8.1,8.1,24,0.00,,,0.00,WeatherDisplay:10.37,2013-02-21 19:30:00,
2013-02-21 14:35:00,35.4,3.0,29.65,West,274,8.1,8.1,25,0.00,,,0.00,WeatherDisplay:10.37,2013-02-21 19:35:00,
2013-02-21 14:40:00,35.4,3.0,29.65,WNW,283,11.5,11.5,25,0.00,,,0.00,WeatherDisplay:10.37,2013-02-21 19:40:00,
2013-02-21 14:45:00,35.4,3.0,29.65,WSW,255,12.7,12.7,25,0.00,,,0.00,WeatherDisplay:10.37,2013-02-21 19:45:00,
2013-02-21 14:50:00,35.4,3.0,29.65,NW,312,5.8,5.8,25,0.00,,,0.00,WeatherDisplay:10.37,2013-02-21 19:50:00,
2013-02-21 14:55:00,35.4,3.0,29.68,NNW,328,10.4,10.4,25,0.00,,,0.00,WeatherDisplay:10.37,2013-02-21 19:55:00,
2013-02-21 15:00:00,35.2,2.9,29.68,NW,319,12.7,12.7,25,0.00,,,0.00,WeatherDisplay:10.37,2013-02-21 20:00:00,
2013-02-21 15:05:00,35.4,3.0,29.68,NNW,341,10.1,10.1,25,0.00,,,0.00,WeatherDisplay:10.37,2013-02-21 20:05:00,
2013-02-21 15:10:00,36.1,2.8,29.68,WNW,288,10.5,10.5,24,0.00,,,0.00,WeatherDisplay:10.37,2013-02-21 20:10:00,
2013-02-21 15:15:00,36.0,2.6,29.68,NNW,343,12.7,12.7,24,0.00,,,0.00,WeatherDisplay:10.37,2013-02-21 20:15:00,
2013-02-21 15:20:00,36.3,2.9,29.68,NW,312,3.5,3.5,24,0.00,,,0.00,WeatherDisplay:10.37,2013-02-21 20:20:00,
2013-02-21 15:25:00,36.3,2.9,29.68,NNW,333,11.5,11.5,24,0.00,,,0.00,WeatherDisplay:10.37,2013-02-21 20:25:00,
2013-02-21 15:30:00,36.3,2.9,29.68,NW,321,11.5,11.5,24,0.00,,,0.00,WeatherDisplay:10.37,2013-02-21 20:30:00,
2013-02-21 15:35:00,36.5,3.1,29.68,WNW,284,8.1,8.1,24,0.00,,,0.00,WeatherDisplay:10.37,2013-02-21 20:35:00,
2013-02-21 15:40:00,37.0,3.5,29.68,WNW,283,12.7,12.7,24,0.00,,,0.00,WeatherDisplay:10.37,2013-02-21 20:40:00,
2013-02-21 15:45:00,37.4,3.8,29.68,North,353,12.7,12.7,24,0.00,,,0.00,WeatherDisplay:10.37,2013-02-21 20:45:00,
2013-02-21 15:50:00,36.3,2.9,29.68,NE,47,12.7,12.7,24,0.00,,,0.00,WeatherDisplay:10.37,2013-02-21 20:50:00,
2013-02-21 15:55:00,35.4,3.0,29.68,West,273,16.1,16.1,25,0.00,,,0.00,WeatherDisplay:10.37,2013-02-21 20:55:00,
2013-02-21 16:00:00,34.9,2.6,29.68,NW,305,10.4,10.4,25,0.00,,,0.00,WeatherDisplay:10.37,2013-02-21 21:00:00,
2013-02-21 16:05:00,34.5,2.2,29.71,WNW,296,15.0,15.0,25,0.00,,,0.00,WeatherDisplay:10.37,2013-02-21 21:05:00,
2013-02-21 16:10:00,34.3,2.1,29.71,NNW,335,10.4,10.4,25,0.00,,,0.00,WeatherDisplay:10.37,2013-02-21 21:10:00,
2013-02-21 16:15:00,34.3,2.1,29.71,NNW,346,10.4,10.4,25,0.00,,,0.00,WeatherDisplay:10.37,2013-02-21 21:15:00,
2013-02-21 16:20:00,34.2,3.6,29.71,WNW,301,9.2,9.2,27,0.00,,,0.00,WeatherDisplay:10.37,2013-02-21 21:20:00,
2013-02-21 16:25:00,34.5,3.9,29.71,NNW,329,5.8,5.8,27,0.00,,,0.00,WeatherDisplay:10.37,2013-02-21 21:25:00,
2013-02-21 16:30:00,34.7,4.1,29.71,WNW,300,9.6,9.6,27,0.00,,,0.00,WeatherDisplay:10.37,2013-02-21 21:30:00,
2013-02-21 16:35:00,34.3,3.8,29.71,NW,315,8.1,8.1,27,0.00,,,0.00,WeatherDisplay:10.37,2013-02-21 21:35:00,
2013-02-21 16:40:00,34.3,3.8,29.71,NNE,25,10.4,10.4,27,0.00,,,0.00,WeatherDisplay:10.37,2013-02-21 21:40:00,
2013-02-21 16:45:00,33.8,3.3,29.71,NW,307,10.4,10.4,27,0.00,,,0.00,WeatherDisplay:10.37,2013-02-21 21:45:00,
2013-02-21 16:50:00,33.3,3.6,29.71,NW,315,11.8,11.8,28,0.00,,,0.00,WeatherDisplay:10.37,2013-02-21 21:50:00,
2013-02-21 16:55:00,33.1,3.5,29.71,WNW,301,10.4,10.4,28,0.00,,,0.00,WeatherDisplay:10.37,2013-02-21 21:55:00,
2013-02-21 17:00:00,32.7,3.1,29.71,NW,309,17.3,17.3,28,0.00,,,0.00,WeatherDisplay:10.37,2013-02-21 22:00:00,
2013-02-21 17:05:00,32.7,3.1,29.74,NW,320,15.0,15.0,28,0.00,,,0.00,WeatherDisplay:10.37,2013-02-21 22:05:00,
2013-02-21 17:10:00,32.7,3.1,29.74,WNW,288,5.8,5.8,28,0.00,,,0.00,WeatherDisplay:10.37,2013-02-21 22:10:00,
2013-02-21 17:15:00,32.5,3.0,29.74,NNW,336,5.8,5.8,28,0.00,,,0.00,WeatherDisplay:10.37,2013-02-21 22:15:00,
2013-02-21 17:20:00,32.5,4.5,29.74,WNW,285,12.7,12.7,30,0.00,,,0.00,WeatherDisplay:10.37,2013-02-21 22:20:00,
2013-02-21 17:25:00,32.4,4.3,29.74,WNW,291,9.2,9.2,30,0.00,,,0.00,WeatherDisplay:10.37,2013-02-21 22:25:00,
2013-02-21 17:30:00,32.4,4.3,29.74,WNW,299,6.9,6.9,30,0.00,,,0.00,WeatherDisplay:10.37,2013-02-21 22:30:00,
2013-02-21 17:35:00,32.4,4.3,29.77,WNW,303,6.9,6.9,30,0.00,,,0.00,WeatherDisplay:10.37,2013-02-21 22:35:00,
2013-02-21 17:40:00,32.4,4.3,29.77,NW,317,10.4,10.4,30,0.00,,,0.00,WeatherDisplay:10.37,2013-02-21 22:40:00,
2013-02-21 17:45:00,32.2,4.2,29.77,NW,319,10.4,10.4,30,0.00,,,0.00,WeatherDisplay:10.37,2013-02-21 22:45:00,
2013-02-21 17:50:00,32.2,4.2,29.77,NW,305,12.7,12.7,30,0.00,,,0.00,WeatherDisplay:10.37,2013-02-21 22:50:00,
2013-02-21 17:55:00,32.2,4.2,29.77,NW,310,8.7,8.7,30,0.00,,,0.00,WeatherDisplay:10.37,2013-02-21 22:55:00,
2013-02-21 18:00:00,32.4,4.3,29.77,West,273,10.4,10.4,30,0.00,,,0.00,WeatherDisplay:10.37,2013-02-21 23:00:00,
2013-02-21 18:05:00,32.4,4.3,29.77,NNW,338,10.4,10.4,30,0.00,,,0.00,WeatherDisplay:10.37,2013-02-21 23:05:00,
2013-02-21 18:11:00,32.2,4.2,29.77,NNW,329,8.0,8.0,30,0.00,,,0.00,WeatherDisplay:10.37,2013-02-21 23:11:00,
2013-02-21 18:16:00,32.2,4.2,29.77,West,280,8.1,8.1,30,0.00,,,0.00,WeatherDisplay:10.37,2013-02-21 23:16:00,
2013-02-21 18:21:00,32.2,4.9,29.80,WNW,282,5.8,7.2,31,0.00,,,0.00,WeatherDisplay:10.37,2013-02-21 23:21:00,
2013-02-21 18:26:00,32.2,4.2,29.80,NW,322,11.5,11.5,30,0.00,,,0.00,WeatherDisplay:10.37,2013-02-21 23:26:00,
2013-02-21 18:31:00,32.0,4.0,29.80,WNW,299,8.1,8.1,30,0.00,,,0.00,WeatherDisplay:10.37,2013-02-21 23:31:00,
2013-02-21 18:36:00,31.8,4.6,29.80,WSW,257,10.4,10.4,31,0.00,,,0.00,WeatherDisplay:10.37,2013-02-21 23:36:00,
2013-02-21 18:41:00,31.6,4.4,29.80,NW,315,10.4,10.4,31,0.00,,,0.00,WeatherDisplay:10.37,2013-02-21 23:41:00,
2013-02-21 18:46:00,31.5,4.3,29.80,NW,311,15.0,15.0,31,0.00,,,0.00,WeatherDisplay:10.37,2013-02-21 23:46:00,
2013-02-21 18:51:00,31.3,4.1,29.83,WNW,285,15.0,15.0,31,0.00,,,0.00,WeatherDisplay:10.37,2013-02-21 23:51:00,
2013-02-21 18:56:00,31.1,3.9,29.83,WNW,282,5.8,5.8,31,0.00,,,0.00,WeatherDisplay:10.37,2013-02-21 23:56:00,
2013-02-21 19:01:00,31.1,3.9,29.83,WNW,289,10.4,10.4,31,0.00,,,0.00,WeatherDisplay:10.37,2013-02-22 00:01:00,
2013-02-21 19:06:00,30.9,3.8,29.83,WNW,297,5.8,5.8,31,0.00,,,0.00,WeatherDisplay:10.37,2013-02-22 00:06:00,
2013-02-21 19:11:00,30.9,3.8,29.83,West,270,11.5,11.5,31,0.00,,,0.00,WeatherDisplay:10.37,2013-02-22 00:11:00,
2013-02-21 19:16:00,30.9,3.8,29.83,WNW,293,6.9,6.9,31,0.00,,,0.00,WeatherDisplay:10.37,2013-02-22 00:16:00,
2013-02-21 19:21:00,30.9,3.8,29.83,NW,324,11.5,11.5,31,0.00,,,0.00,WeatherDisplay:10.37,2013-02-22 00:21:00,
2013-02-21 19:26:00,30.9,3.8,29.83,WNW,303,5.8,5.8,31,0.00,,,0.00,WeatherDisplay:10.37,2013-02-22 00:26:00,
2013-02-21 19:31:00,31.1,3.9,29.83,NNW,330,8.3,8.3,31,0.00,,,0.00,WeatherDisplay:10.37,2013-02-22 00:31:00,
2013-02-21 19:36:00,31.1,3.9,29.83,NNW,335,8.1,8.1,31,0.00,,,0.00,WeatherDisplay:10.37,2013-02-22 00:36:00,
2013-02-21 19:41:00,30.9,3.8,29.83,NW,314,15.0,15.0,31,0.00,,,0.00,WeatherDisplay:10.37,2013-02-22 00:41:00,
2013-02-21 19:46:00,30.7,3.6,29.83,NW,322,12.7,12.7,31,0.00,,,0.00,WeatherDisplay:10.37,2013-02-22 00:46:00,
2013-02-21 19:51:00,30.7,3.6,29.85,NW,321,12.7,12.7,31,0.00,,,0.00,WeatherDisplay:10.37,2013-02-22 00:51:00,
2013-02-21 19:56:00,30.6,3.5,29.85,WNW,303,11.5,11.5,31,0.00,,,0.00,WeatherDisplay:10.37,2013-02-22 00:56:00,
2013-02-21 20:01:00,30.6,4.1,29.85,WNW,300,15.0,15.0,32,0.00,,,0.00,WeatherDisplay:10.37,2013-02-22 01:01:00,
2013-02-21 20:06:00,30.6,4.1,29.85,WNW,292,17.3,17.3,32,0.00,,,0.00,WeatherDisplay:10.37,2013-02-22 01:06:00,
2013-02-21 20:11:00,30.6,4.1,29.85,WNW,298,9.2,9.2,32,0.00,,,0.00,WeatherDisplay:10.37,2013-02-22 01:11:00,
2013-02-21 20:16:00,30.4,4.7,29.85,NW,321,8.1,8.1,33,0.00,,,0.00,WeatherDisplay:10.37,2013-02-22 01:16:00,
2013-02-21 20:21:00,30.2,4.5,29.85,North,353,12.7,12.7,33,0.00,,,0.00,WeatherDisplay:10.37,2013-02-22 01:21:00,
2013-02-21 20:26:00,30.2,4.5,29.85,NW,308,8.1,8.1,33,0.00,,,0.00,WeatherDisplay:10.37,2013-02-22 01:26:00,
2013-02-21 20:31:00,30.0,4.3,29.85,NNW,341,10.4,10.4,33,0.00,,,0.00,WeatherDisplay:10.37,2013-02-22 01:31:00,
2013-02-21 20:36:00,29.8,4.8,29.88,West,266,8.1,8.1,34,0.00,,,0.00,WeatherDisplay:10.37,2013-02-22 01:36:00,
2013-02-21 20:41:00,29.8,4.8,29.88,West,272,12.7,12.7,34,0.00,,,0.00,WeatherDisplay:10.37,2013-02-22 01:41:00,
2013-02-21 20:46:00,29.7,4.7,29.88,West,262,11.5,11.5,34,0.00,,,0.00,WeatherDisplay:10.37,2013-02-22 01:46:00,
2013-02-21 20:51:00,29.7,4.7,29.88,NNW,333,9.2,9.2,34,0.00,,,0.00,WeatherDisplay:10.37,2013-02-22 01:51:00,
2013-02-21 20:56:00,29.7,5.3,29.88,WNW,285,8.1,8.1,35,0.00,,,0.00,WeatherDisplay:10.37,2013-02-22 01:56:00,
2013-02-21 21:01:00,29.7,5.3,29.88,NW,310,11.5,11.5,35,0.00,,,0.00,WeatherDisplay:10.37,2013-02-22 02:01:00,
2013-02-21 21:06:00,29.7,5.3,29.88,WSW,251,15.0,15.0,35,0.00,,,0.00,WeatherDisplay:10.37,2013-02-22 02:06:00,
2013-02-21 21:11:00,29.5,5.1,29.88,NW,307,8.1,8.1,35,0.00,,,0.00,WeatherDisplay:10.37,2013-02-22 02:11:00,
2013-02-21 21:16:00,29.5,5.8,29.88,NW,312,11.5,11.5,36,0.00,,,0.00,WeatherDisplay:10.37,2013-02-22 02:16:00,
2013-02-21 21:21:00,29.5,6.4,29.91,West,278,9.2,9.2,37,0.00,,,0.00,WeatherDisplay:10.37,2013-02-22 02:21:00,
2013-02-21 21:26:00,29.5,6.4,29.91,NW,308,10.4,10.4,37,0.00,,,0.00,WeatherDisplay:10.37,2013-02-22 02:26:00,
2013-02-21 21:31:00,29.5,7.5,29.91,NW,310,15.0,15.0,39,0.00,,,0.00,WeatherDisplay:10.37,2013-02-22 02:31:00,
2013-02-21 21:36:00,29.5,8.1,29.91,NW,311,6.9,6.9,40,0.00,,,0.00,WeatherDisplay:10.37,2013-02-22 02:36:00,
2013-02-21 21:41:00,29.5,8.1,29.91,WNW,296,8.1,8.1,40,0.00,,,0.00,WeatherDisplay:10.37,2013-02-22 02:41:00,
2013-02-21 21:46:00,29.5,8.6,29.91,NNW,328,8.1,8.1,41,0.00,,,0.00,WeatherDisplay:10.37,2013-02-22 02:46:00,
2013-02-21 21:51:00,29.5,8.6,29.91,NNW,343,10.4,10.4,41,0.00,,,0.00,WeatherDisplay:10.37,2013-02-22 02:51:00,
2013-02-21 21:56:00,29.5,8.6,29.91,NW,313,9.2,9.2,41,0.00,,,0.00,WeatherDisplay:10.37,2013-02-22 02:56:00,
2013-02-21 22:01:00,29.7,8.8,29.91,NW,318,12.7,12.7,41,0.00,,,0.00,WeatherDisplay:10.37,2013-02-22 03:01:00,
2013-02-21 22:06:00,29.7,8.8,29.91,WNW,284,10.4,10.4,41,0.00,,,0.00,WeatherDisplay:10.37,2013-02-22 03:06:00,
2013-02-21 22:11:00,29.7,8.8,29.91,WNW,284,9.6,9.6,41,0.00,,,0.00,WeatherDisplay:10.37,2013-02-22 03:11:00,
2013-02-21 22:16:00,29.7,8.8,29.91,WNW,301,10.4,10.4,41,0.00,,,0.00,WeatherDisplay:10.37,2013-02-22 03:16:00,
2013-02-21 22:21:00,29.7,8.8,29.91,NW,325,9.2,9.2,41,0.00,,,0.00,WeatherDisplay:10.37,2013-02-22 03:21:00,
2013-02-21 22:26:00,29.8,9.0,29.91,WNW,286,11.5,11.5,41,0.00,,,0.00,WeatherDisplay:10.37,2013-02-22 03:26:00,
2013-02-21 22:31:00,29.8,9.0,29.91,WNW,297,9.2,9.2,41,0.00,,,0.00,WeatherDisplay:10.37,2013-02-22 03:31:00,
2013-02-21 22:36:00,29.8,9.5,29.91,WNW,302,8.1,8.1,42,0.00,,,0.00,WeatherDisplay:10.37,2013-02-22 03:36:00,
2013-02-21 22:41:00,29.8,9.5,29.91,NNW,334,12.7,12.7,42,0.00,,,0.00,WeatherDisplay:10.37,2013-02-22 03:41:00,
2013-02-21 22:46:00,30.0,9.7,29.91,NW,306,9.2,9.2,42,0.00,,,0.00,WeatherDisplay:10.37,2013-02-22 03:46:00,
2013-02-21 22:51:00,30.0,9.7,29.91,West,274,8.1,8.1,42,0.00,,,0.00,WeatherDisplay:10.37,2013-02-22 03:51:00,
2013-02-21 22:56:00,30.2,9.8,29.91,NW,316,5.8,5.8,42,0.00,,,0.00,WeatherDisplay:10.37,2013-02-22 03:56:00,
2013-02-21 23:01:00,30.4,10.0,29.91,NW,318,5.8,5.8,42,0.00,,,0.00,WeatherDisplay:10.37,2013-02-22 04:01:00,
2013-02-21 23:06:00,30.7,10.3,29.94,WNW,288,10.4,10.4,42,0.00,,,0.00,WeatherDisplay:10.37,2013-02-22 04:06:00,
2013-02-21 23:11:00,30.7,9.8,29.94,West,276,8.1,8.1,41,0.00,,,0.00,WeatherDisplay:10.37,2013-02-22 04:11:00,
2013-02-21 23:16:00,30.9,9.9,29.94,NW,320,8.1,8.1,41,0.00,,,0.00,WeatherDisplay:10.37,2013-02-22 04:16:00,
2013-02-21 23:21:00,30.9,10.5,29.94,WNW,297,5.8,5.8,42,0.00,,,0.00,WeatherDisplay:10.37,2013-02-22 04:21:00,
2013-02-21 23:26:00,30.9,9.9,29.94,West,263,8.1,8.1,41,0.00,,,0.00,WeatherDisplay:10.37,2013-02-22 04:26:00,
2013-02-21 23:32:00,30.9,9.9,29.94,West,268,8.1,8.1,41,0.00,,,0.00,WeatherDisplay:10.37,2013-02-22 04:32:00,
2013-02-21 23:37:00,31.1,10.1,29.97,WNW,289,8.1,8.1,41,0.00,,,0.00,WeatherDisplay:10.37,2013-02-22 04:37:00,
2013-02-21 23:42:00,31.1,10.1,29.97,WNW,297,8.1,8.1,41,0.00,,,0.00,WeatherDisplay:10.37,2013-02-22 04:42:00,
2013-02-21 23:47:00,31.1,10.1,29.97,WNW,292,8.1,8.1,41,0.00,,,0.00,WeatherDisplay:10.37,2013-02-22 04:47:00,
2013-02-21 23:52:00,31.1,10.1,29.97,NNW,331,8.1,8.1,41,0.00,,,0.00,WeatherDisplay:10.37,2013-02-22 04:52:00,
2013-02-21 23:57:00,30.9,9.9,29.97,NW,317,8.1,8.1,41,0.00,,,0.00,WeatherDisplay:10.37,2013-02-22 04:57:00,